Time;durP1;ratioP1;P1;durP2;ratioP2;P2;SDS_P1;SDS_P2;PMS_P1;PMS_P2;Temp;Humidity;BMP_temperature;BMP_pressure;BME280_temperature;BME280_humidity;BME280_pressure;Samples;Min_cycle;Max_cycle;Signal;HPM_P1;HPM_P2
2024/04/07 00:00:19;;;;;;;;;9.00;9.00;;;;;25.99;31.54;101236.90;245279;1177;58317;-60
2024/04/07 00:05:42;;;;;;;;;9.00;9.00;;;;;25.99;31.50;101221.44;245304;1191;73659;-59
2024/04/07 00:10:45;;;;;;;;;8.00;8.00;;;;;25.98;31.64;101234.36;245313;1177;58307;-60
2024/04/07 00:15:48;;;;;;;;;8.50;8.50;;;;;25.97;31.60;101240.86;245317;1182;73847;-58
2024/04/07 00:21:02;;;;;;;;;9.00;9.00;;;;;25.97;31.72;101239.94;245294;1177;58288;-60
2024/04/07 00:26:05;;;;;;;;;9.25;9.00;;;;;25.97;31.52;101235.92;245301;1183;73576;-58
2024/04/07 00:31:08;;;;;;;;;6.50;6.50;;;;;25.97;31.66;101241.46;245312;1182;73364;-58
2024/04/07 00:36:11;;;;;;;;;12.33;9.33;;;;;25.95;31.81;101245.72;245327;1182;58246;-60
2024/04/07 00:41:14;;;;;;;;;9.00;8.67;;;;;25.95;31.60;101245.73;245317;1179;58301;-60
2024/04/07 00:46:17;;;;;;;;;9.00;9.00;;;;;25.95;31.65;101252.73;245324;1182;58282;-59
2024/04/07 00:51:20;;;;;;;;;8.50;8.50;;;;;25.94;31.67;101253.21;245298;1180;58286;-60
2024/04/07 00:56:23;;;;;;;;;10.00;8.50;;;;;25.94;31.69;101256.71;245285;1177;58297;-59
2024/04/07 01:01:25;;;;;;;;;8.33;8.33;;;;;25.92;31.63;101260.91;245305;1180;58340;-60
2024/04/07 01:06:29;;;;;;;;;8.33;8.00;;;;;25.93;31.63;101271.31;245315;1177;58285;-60
2024/04/07 01:11:31;;;;;;;;;8.00;8.00;;;;;25.92;31.72;101278.16;245318;1180;58326;-60
2024/04/07 01:16:34;;;;;;;;;8.67;8.67;;;;;25.93;31.69;101289.95;245333;1178;58311;-59
2024/04/07 01:21:37;;;;;;;;;8.50;8.50;;;;;25.92;31.63;101283.48;245359;1183;58284;-60
2024/04/07 01:26:40;;;;;;;;;9.00;9.00;;;;;25.91;31.72;101281.54;245282;1182;93290;-59
2024/04/07 01:31:43;;;;;;;;;8.33;8.33;;;;;25.90;31.64;101277.13;245306;1177;58238;-60
2024/04/07 01:36:47;;;;;;;;;9.00;8.00;;;;;25.90;31.62;101274.21;245319;1182;58343;-60
2024/04/07 01:41:50;;;;;;;;;10.25;8.25;;;;;25.90;31.53;101271.30;245275;1182;93248;-59
2024/04/07 01:46:53;;;;;;;;;7.00;7.00;;;;;25.90;31.66;101267.13;245316;1180;58324;-59
2024/04/07 01:51:55;;;;;;;;;7.67;7.67;;;;;25.89;31.68;101272.41;245289;1177;58330;-59
2024/04/07 01:56:59;;;;;;;;;7.00;7.00;;;;;25.88;31.68;101278.87;245326;1177;58310;-59
2024/04/07 02:02:02;;;;;;;;;7.00;7.00;;;;;25.89;31.55;101277.23;245310;1183;58313;-60
2024/04/07 02:07:05;;;;;;;;;7.00;7.00;;;;;25.87;31.65;101270.51;245323;1183;58363;-58
2024/04/07 02:12:08;;;;;;;;;7.25;7.25;;;;;25.87;31.58;101266.83;245341;1182;58348;-59
2024/04/07 02:17:13;;;;;;;;;8.00;8.00;;;;;25.87;31.69;101268.14;245343;1177;58286;-59
2024/04/07 02:22:16;;;;;;;;;9.00;7.00;;;;;25.87;31.77;101265.48;245321;1183;92411;-60
2024/04/07 02:27:19;;;;;;;;;7.33;7.33;;;;;25.86;31.71;101264.44;245336;1177;58415;-60
2024/04/07 02:32:22;;;;;;;;;9.00;9.00;;;;;25.86;31.73;101271.59;245269;1177;92614;-59
2024/04/07 02:37:25;;;;;;;;;7.00;7.00;;;;;25.86;31.76;101283.33;245321;1180;58288;-60
2024/04/07 02:42:28;;;;;;;;;7.33;7.33;;;;;25.85;31.74;101291.64;245285;1180;58276;-60
2024/04/07 02:52:52;;;;;;;;;9.67;8.33;;;;;25.84;31.65;101297.97;245300;1182;92634;-59
2024/04/07 02:57:55;;;;;;;;;7.00;7.00;;;;;25.84;31.70;101301.36;245330;1177;58763;-59
2024/04/07 03:02:58;;;;;;;;;7.00;7.00;;;;;25.83;31.80;101308.41;245279;1183;58381;-58
2024/04/07 03:08:01;;;;;;;;;8.67;8.67;;;;;25.81;31.88;101306.10;245292;1191;58309;-59
2024/04/07 03:13:04;;;;;;;;;7.00;7.00;;;;;25.81;31.90;101302.40;245282;1177;58277;-60
2024/04/07 03:18:07;;;;;;;;;8.00;8.00;;;;;25.80;31.82;101305.14;245319;1177;58314;-60
2024/04/07 03:23:10;;;;;;;;;7.00;7.00;;;;;25.80;31.88;101300.75;245305;1177;58405;-60
2024/04/07 03:28:13;;;;;;;;;7.33;7.33;;;;;25.80;31.72;101296.80;245302;1182;58277;-60
2024/04/07 03:33:15;;;;;;;;;8.00;8.00;;;;;25.81;31.83;101303.12;245331;1179;58431;-60
2024/04/07 03:38:18;;;;;;;;;8.00;8.00;;;;;25.80;31.78;101307.55;245312;1182;58326;-58
2024/04/07 03:43:21;;;;;;;;;7.75;7.75;;;;;25.80;31.91;101306.71;245348;1177;58177;-59
2024/04/07 03:48:24;;;;;;;;;10.00;8.75;;;;;25.79;31.79;101311.36;245308;1183;88084;-59
2024/04/07 03:53:28;;;;;;;;;10.00;9.00;;;;;25.79;31.86;101319.91;245326;1177;58250;-60
2024/04/07 03:58:31;;;;;;;;;10.75;10.75;;;;;25.79;31.80;101338.92;245311;1190;88324;-58
2024/04/07 04:03:34;;;;;;;;;8.67;7.00;;;;;25.79;31.66;101357.39;245317;1177;58379;-60
2024/04/07 04:08:36;;;;;;;;;8.67;8.00;;;;;25.79;31.84;101366.63;245324;1177;58465;-59
2024/04/07 04:13:39;;;;;;;;;9.00;9.00;;;;;25.78;31.70;101369.21;245270;1179;58250;-60
2024/04/07 04:18:43;;;;;;;;;8.00;8.00;;;;;25.78;31.81;101369.46;245294;1183;58589;-59
2024/04/07 04:23:48;;;;;;;;;8.25;8.25;;;;;25.79;31.70;101379.95;245301;1180;87940;-59
2024/04/07 04:28:51;;;;;;;;;8.00;8.00;;;;;25.79;31.83;101385.92;245301;1180;88501;-59
2024/04/07 04:33:56;;;;;;;;;7.00;7.00;;;;;25.79;31.75;101393.55;245315;1177;58415;-60
2024/04/07 04:38:59;;;;;;;;;8.00;8.00;;;;;25.80;31.69;101396.20;245295;1178;88826;-59
2024/04/07 04:44:03;;;;;;;;;8.67;8.67;;;;;25.81;31.78;101401.30;245276;1177;58295;-58
2024/04/07 04:49:33;;;;;;;;;8.00;8.00;;;;;25.81;31.72;101406.98;243990;1183;87937;-57
2024/04/07 04:54:36;;;;;;;;;10.00;7.50;;;;;25.82;31.66;101410.48;243980;1183;87276;-58
2024/04/07 04:59:39;;;;;;;;;8.00;8.00;;;;;25.82;31.72;101417.77;244109;1180;58616;-59
2024/04/07 05:05:45;;;;;;;;;8.67;8.67;;;;;25.83;31.62;101427.67;245230;1191;58600;-57
2024/04/07 05:11:03;;;;;;;;;7.50;7.50;;;;;25.83;31.67;101428.09;243874;1179;87407;-59
2024/04/07 05:16:10;;;;;;;;;6.33;6.33;;;;;25.82;31.63;101432.95;244316;1183;87494;-58
2024/04/07 05:21:16;;;;;;;;;9.00;8.33;;;;;25.82;31.70;101435.40;243976;1183;88679;-58
2024/04/07 05:26:21;;;;;;;;;7.00;7.00;;;;;25.82;31.68;101435.09;243957;1183;58508;-59
2024/04/07 05:31:57;;;;;;;;;10.00;10.00;;;;;25.83;31.74;101435.02;243915;1179;88168;-59
2024/04/07 05:37:08;;;;;;;;;10.50;9.75;;;;;25.83;31.85;101437.36;243925;1182;87908;-60
2024/04/07 05:42:13;;;;;;;;;7.33;7.33;;;;;25.82;31.69;101438.23;244128;1180;88419;-57
2024/04/07 05:53:34;;;;;;;;;10.50;9.75;;;;;25.81;31.69;101454.80;243956;1180;86614;-59
2024/04/07 05:58:38;;;;;;;;;9.75;9.75;;;;;25.82;31.73;101461.58;243361;1183;88707;-58
2024/04/07 06:03:44;;;;;;;;;7.00;7.00;;;;;25.74;32.05;101469.17;240543;1179;87587;-60
2024/04/07 06:09:19;;;;;;;;;8.00;8.00;;;;;25.50;32.33;101478.11;239800;1173;62684;-67
2024/04/07 06:14:22;;;;;;;;;8.67;8.67;;;;;25.53;32.18;101485.17;242850;1189;87337;-70
2024/04/07 06:19:26;;;;;;;;;9.00;9.00;;;;;25.71;32.00;101489.14;242571;1183;88460;-66
2024/04/07 06:24:39;;;;;;;;;9.00;9.00;;;;;25.81;31.89;101493.49;239701;1183;58643;-64
2024/04/07 06:29:42;;;;;;;;;10.00;10.00;;;;;25.91;31.67;101497.36;242257;1180;89277;-66
2024/04/07 06:34:45;;;;;;;;;14.00;10.00;;;;;25.96;31.52;101504.49;242891;1184;88854;-66
2024/04/07 06:40:20;;;;;;;;;8.50;8.50;;;;;25.98;31.43;101509.33;243590;1180;87953;-64
2024/04/07 06:45:33;;;;;;;;;9.00;9.00;;;;;26.01;31.61;101512.17;243770;1183;88069;-70
2024/04/07 06:51:08;;;;;;;;;8.50;8.50;;;;;26.02;31.33;101517.52;243818;1179;88841;-70
2024/04/07 06:56:17;;;;;;;;;8.00;8.00;;;;;26.03;31.46;101518.91;243238;1183;88494;-67
2024/04/07 07:01:52;;;;;;;;;9.50;9.50;;;;;26.04;31.38;101518.90;243770;1183;88315;-65
2024/04/07 07:07:02;;;;;;;;;10.00;10.00;;;;;26.06;31.39;101523.99;243355;1183;87358;-67
2024/04/07 07:12:37;;;;;;;;;9.00;9.00;;;;;26.07;31.47;101533.98;243590;1180;88075;-64
2024/04/07 07:17:46;;;;;;;;;10.00;10.00;;;;;26.09;31.27;101537.88;243030;1190;87712;-66
2024/04/07 07:23:22;;;;;;;;;9.00;9.00;;;;;26.12;31.36;101540.97;243940;1179;88031;-64
2024/04/07 07:28:25;;;;;;;;;10.67;10.67;;;;;26.14;31.24;101554.31;243404;1180;88366;-67
2024/04/07 07:34:01;;;;;;;;;9.67;9.67;;;;;26.16;31.24;101559.80;243701;1183;58599;-67
2024/04/07 07:39:25;;;;;;;;;9.00;9.00;;;;;26.17;31.10;101564.16;243018;1183;88526;-64
2024/04/07 07:44:38;;;;;;;;;8.25;8.25;;;;;26.19;31.19;101569.52;243857;1183;88121;-64
2024/04/07 07:50:00;;;;;;;;;11.00;10.50;;;;;26.19;31.29;101567.98;243715;1183;87993;-65
2024/04/07 07:55:35;;;;;;;;;9.67;9.67;;;;;26.20;31.20;101572.84;243919;1183;87867;-70
2024/04/07 08:00:47;;;;;;;;;12.00;11.00;;;;;26.22;31.23;101578.21;242700;1186;88827;-67
2024/04/07 08:06:02;;;;;;;;;10.00;10.00;;;;;26.24;31.18;101573.34;243578;1183;87134;-70
2024/04/07 08:11:27;;;;;;;;;9.33;9.33;;;;;26.27;31.14;101573.91;243372;1179;88560;-70
2024/04/07 08:16:54;;;;;;;;;10.00;10.00;;;;;26.29;31.08;101581.73;243052;1181;89588;-70
2024/04/07 08:22:19;;;;;;;;;8.00;8.00;;;;;26.33;31.13;101583.98;242954;1183;89560;-70
2024/04/07 08:27:55;;;;;;;;;10.00;9.00;;;;;26.37;30.82;101587.58;243089;1183;89568;-67
2024/04/07 08:34:01;;;;;;;;;;;;;;;;;;;;;
2024/04/07 08:39:17;;;;;;;;;8.33;8.33;;;;;26.50;30.95;101598.28;242342;1183;89061;-69
2024/04/07 08:44:23;;;;;;;;;9.33;9.33;;;;;26.53;30.83;101602.05;242076;1190;87430;-71
2024/04/07 08:49:28;;;;;;;;;11.00;11.00;;;;;26.56;30.76;101610.72;242041;1183;88977;-69
2024/04/07 08:54:49;;;;;;;;;10.00;8.00;;;;;26.59;30.74;101612.17;242890;1179;88572;-69
2024/04/07 09:00:26;;;;;;;;;8.33;8.33;;;;;26.65;30.56;101615.88;242970;1179;88393;-68
2024/04/07 09:05:29;;;;;;;;;9.00;9.00;;;;;26.69;30.58;101614.31;243344;1183;86666;-67
2024/04/07 09:10:33;;;;;;;;;11.25;11.25;;;;;26.73;30.44;101612.92;242954;1183;88857;-72
2024/04/07 09:15:36;;;;;;;;;9.25;9.25;;;;;26.80;30.33;101611.23;243434;1183;87296;-66
2024/04/07 09:20:39;;;;;;;;;11.50;11.00;;;;;26.87;30.50;101619.30;242633;1180;88218;-72
2024/04/07 09:25:44;;;;;;;;;8.50;8.50;;;;;26.91;30.32;101622.69;241704;1186;86981;-69
2024/04/07 09:30:53;;;;;;;;;11.00;11.00;;;;;26.94;30.12;101621.48;241281;1184;87363;-66
2024/04/07 09:36:04;;;;;;;;;10.25;10.25;;;;;27.01;30.22;101621.66;241495;1183;88079;-72
2024/04/07 09:41:43;;;;;;;;;10.00;10.00;;;;;27.14;29.76;101617.94;242271;1183;89463;-66
2024/04/07 09:46:48;;;;;;;;;9.75;9.75;;;;;27.21;29.61;101623.44;243142;1179;88492;-66
2024/04/07 09:52:26;;;;;;;;;9.00;9.00;;;;;27.26;29.71;101623.52;242595;1183;88536;-72
2024/04/07 09:57:35;;;;;;;;;10.00;10.00;;;;;27.23;29.73;101627.66;242224;1186;88264;-68
2024/04/07 10:03:04;;;;;;;;;9.00;9.00;;;;;27.15;29.92;101621.98;242764;1179;88575;-68
2024/04/07 10:08:26;;;;;;;;;10.00;10.00;;;;;27.06;30.13;101627.80;242839;1183;88532;-68
2024/04/07 10:13:36;;;;;;;;;8.25;8.25;;;;;26.99;30.17;101631.43;243242;1183;88701;-68
2024/04/07 10:18:43;;;;;;;;;10.75;10.75;;;;;27.06;29.92;101635.30;242938;1183;88470;-69
2024/04/07 10:23:46;;;;;;;;;9.33;8.33;;;;;27.15;29.96;101635.84;242709;1183;89596;-68
2024/04/07 10:28:58;;;;;;;;;10.00;10.00;;;;;27.17;29.69;101633.32;242032;1186;89223;-69
2024/04/07 10:34:01;;;;;;;;;12.00;10.00;;;;;27.17;29.80;101635.61;241639;1184;87764;-68
2024/04/07 10:39:37;;;;;;;;;9.33;9.00;;;;;27.12;29.99;101633.05;242762;1184;88183;-67
2024/04/07 10:44:55;;;;;;;;;10.00;10.00;;;;;27.21;29.83;101630.36;242248;1180;89435;-68
2024/04/07 10:50:31;;;;;;;;;10.00;10.00;;;;;27.31;29.52;101636.29;242696;1184;87973;-71
2024/04/07 10:55:58;;;;;;;;;8.00;8.00;;;;;27.41;29.47;101631.75;242576;1183;87236;-68
2024/04/07 11:01:33;;;;;;;;;11.00;9.50;;;;;27.71;28.97;101624.35;242921;1186;87728;-68
2024/04/07 11:07:09;;;;;;;;;9.50;9.50;;;;;27.70;28.92;101623.18;243866;1183;88129;-72
2024/04/07 11:12:44;;;;;;;;;10.00;10.00;;;;;27.64;29.04;101629.71;243461;1183;87988;-66
2024/04/07 11:17:53;;;;;;;;;9.50;9.50;;;;;27.62;29.18;101629.36;243262;1180;88771;-68
2024/04/07 11:23:09;;;;;;;;;7.25;7.25;;;;;27.52;28.99;101628.17;243630;1183;88031;-66
2024/04/07 11:28:13;;;;;;;;;10.00;10.00;;;;;27.75;28.89;101620.41;242469;1183;88423;-71
2024/04/07 11:33:17;;;;;;;;;10.00;10.00;;;;;27.85;28.84;101624.09;242119;1186;89086;-68
2024/04/07 11:38:29;;;;;;;;;10.00;10.00;;;;;27.85;28.74;101622.94;243002;1179;88453;-72
2024/04/07 11:44:29;;;;;;;;;8.33;8.33;;;;;27.84;28.72;101619.95;243199;1183;88999;-72
2024/04/07 11:49:34;;;;;;;;;9.75;9.75;;;;;27.81;28.73;101623.13;242778;1183;88567;-68
2024/04/07 11:54:49;;;;;;;;;9.00;7.00;;;;;27.72;28.85;101632.33;242091;1183;58470;-67
2024/04/07 12:00:09;;;;;;;;;9.00;9.00;;;;;27.77;28.99;101636.20;243491;1179;88365;-69
2024/04/07 12:05:45;;;;;;;;;;;;;;;27.67;29.07;101642.60;242718;1183;88733;-69
2024/04/07 12:10:58;;;;;;;;;8.50;8.50;;;;;27.78;28.85;101641.02;242149;1180;87656;-68
2024/04/07 12:16:33;;;;;;;;;7.67;7.67;;;;;27.72;28.79;101645.69;242929;1183;87780;-68
2024/04/07 12:21:44;;;;;;;;;9.00;9.00;;;;;27.72;28.85;101640.65;242317;1179;88415;-69
2024/04/07 12:26:57;;;;;;;;;10.25;10.25;;;;;28.60;27.49;101636.49;243706;1183;88504;-68
2024/04/07 12:32:00;;;;;;;;;8.25;8.25;;;;;29.41;26.54;101628.46;242051;1183;88461;-66
2024/04/07 12:37:16;;;;;;;;;8.00;8.00;;;;;29.24;26.75;101623.85;242196;1183;88893;-68
2024/04/07 12:42:30;;;;;;;;;8.00;8.00;;;;;28.73;27.46;101632.80;243641;1183;88055;-69
2024/04/07 12:47:43;;;;;;;;;8.00;8.00;;;;;28.30;27.83;101629.89;243726;1180;87686;-69
2024/04/07 12:53:19;;;;;;;;;8.00;8.00;;;;;28.05;28.47;101623.90;243743;1180;88379;-66
2024/04/07 12:58:34;;;;;;;;;7.00;7.00;;;;;28.02;28.23;101617.17;243466;1184;87646;-69
2024/04/07 13:04:10;;;;;;;;;11.00;10.00;;;;;28.20;28.27;101620.00;243167;1183;88383;-72
2024/04/07 13:09:22;;;;;;;;;7.67;7.67;;;;;28.39;27.94;101619.30;243327;1183;87979;-72
2024/04/07 13:14:42;;;;;;;;;6.50;6.50;;;;;28.49;27.78;101618.27;243420;1185;87519;-72
2024/04/07 13:20:00;;;;;;;;;9.00;9.00;;;;;28.59;27.75;101620.64;243489;1184;88970;-72
2024/04/07 13:25:36;;;;;;;;;9.00;9.00;;;;;28.49;27.83;101621.84;243051;1180;87810;-69
2024/04/07 13:30:57;;;;;;;;;10.00;8.00;;;;;28.32;28.20;101624.06;243213;1183;88167;-66
2024/04/07 13:36:32;;;;;;;;;9.00;8.00;;;;;28.19;28.26;101630.27;243432;1180;88046;-69
2024/04/07 13:41:44;;;;;;;;;9.00;9.00;;;;;28.21;28.33;101635.27;242678;1185;88381;-66
2024/04/07 13:47:01;;;;;;;;;8.00;7.67;;;;;28.37;28.15;101633.10;243542;1183;88717;-68
2024/04/07 13:52:26;;;;;;;;;10.25;10.25;;;;;28.45;28.01;101632.48;242998;1186;88693;-68
2024/04/07 13:58:02;;;;;;;;;8.67;8.67;;;;;28.47;28.20;101632.63;243464;1183;88185;-66
2024/04/07 14:03:11;;;;;;;;;12.00;10.00;;;;;28.34;28.26;101642.27;242112;1183;88053;-69
2024/04/07 14:08:45;;;;;;;;;8.00;8.00;;;;;28.20;28.65;101641.64;243033;1183;88216;-66
2024/04/07 14:14:21;;;;;;;;;7.50;7.50;;;;;28.19;28.58;101649.79;242712;1179;88365;-68
2024/04/07 14:19:39;;;;;;;;;8.00;8.00;;;;;28.19;28.60;101642.92;242776;1183;88936;-68
2024/04/07 14:25:08;;;;;;;;;9.00;9.00;;;;;28.22;28.61;101643.09;242810;1186;87677;-68
2024/04/07 14:30:32;;;;;;;;;9.00;9.00;;;;;28.40;28.29;101643.85;242865;1183;88113;-66
2024/04/07 14:35:53;;;;;;;;;8.67;8.67;;;;;28.57;28.05;101642.29;242991;1183;87919;-69
2024/04/07 14:41:18;;;;;;;;;8.50;8.50;;;;;28.38;28.35;101649.08;243089;1184;88633;-72
2024/04/07 14:46:36;;;;;;;;;7.67;7.67;;;;;28.11;28.88;101651.85;243482;1183;87587;-72
2024/04/07 14:52:11;;;;;;;;;8.00;8.00;;;;;27.89;29.31;101652.65;243232;1183;88397;-69
2024/04/07 14:57:30;;;;;;;;;8.00;8.00;;;;;27.77;29.61;101661.05;242884;1179;88184;-72
2024/04/07 15:03:06;;;;;;;;;6.00;6.00;;;;;27.79;29.42;101663.95;243764;1183;88805;-68
2024/04/07 15:08:28;;;;;;;;;11.00;11.00;;;;;27.78;29.45;101662.12;242747;1183;89332;-69
2024/04/07 15:14:03;;;;;;;;;8.33;8.33;;;;;27.68;29.52;101670.23;243193;1179;88540;-69
2024/04/07 15:19:19;;;;;;;;;7.50;7.50;;;;;27.58;29.72;101670.05;243159;1180;87836;-72
2024/04/07 15:25:13;;;;;;;;;9.00;9.00;;;;;27.49;29.96;101675.23;242837;1184;88772;-66
2024/04/07 15:30:16;;;;;;;;;8.75;8.75;;;;;27.44;30.03;101676.95;242207;1183;87809;-68
2024/04/07 15:35:38;;;;;;;;;9.00;9.00;;;;;27.37;30.28;101677.04;242716;1183;88923;-69
2024/04/07 15:41:14;;;;;;;;;8.00;8.00;;;;;27.32;30.33;101678.19;241142;1179;89611;-72
2024/04/07 15:46:18;;;;;;;;;9.00;9.00;;;;;27.27;30.53;101683.87;242100;1183;88508;-70
2024/04/07 15:51:23;;;;;;;;;8.00;8.00;;;;;27.21;30.47;101690.14;243126;1179;87612;-68
2024/04/07 15:56:26;;;;;;;;;7.75;7.75;;;;;27.16;30.61;101697.94;242679;1183;58632;-66
2024/04/07 16:02:01;;;;;;;;;9.00;9.00;;;;;27.11;30.68;101696.48;243015;1184;88553;-69
2024/04/07 16:07:14;;;;;;;;;8.50;8.50;;;;;27.07;30.60;101696.87;243190;1184;88378;-72
2024/04/07 16:18:52;;;;;;;;;8.00;8.00;;;;;27.01;30.67;101703.64;242116;1190;88971;-66
2024/04/07 16:23:59;;;;;;;;;8.50;8.50;;;;;26.97;30.92;101706.59;242337;1180;88671;-68
2024/04/07 16:29:32;;;;;;;;;8.00;8.00;;;;;26.93;30.89;101708.48;243527;1183;89117;-69
2024/04/07 16:35:01;;;;;;;;;9.00;9.00;;;;;26.89;30.87;101712.74;243071;1184;87981;-68
2024/04/07 16:40:36;;;;;;;;;7.67;7.67;;;;;26.86;30.98;101718.23;244058;1183;88373;-72
2024/04/07 16:45:56;;;;;;;;;7.00;7.00;;;;;26.82;31.12;101716.11;242845;1183;88494;-68
2024/04/07 16:51:34;;;;;;;;;10.00;8.00;;;;;26.80;30.90;101719.77;243290;1186;88066;-65
2024/04/07 16:56:46;;;;;;;;;7.67;7.67;;;;;26.77;31.24;101726.54;243636;1183;88083;-69
2024/04/07 17:01:51;;;;;;;;;7.67;7.67;;;;;26.72;31.20;101725.95;242641;1183;88657;-65
2024/04/07 17:07:00;;;;;;;;;10.00;8.50;;;;;26.70;31.25;101737.96;243381;1183;88296;-66
2024/04/07 17:12:37;;;;;;;;;9.00;8.00;;;;;26.68;31.43;101741.77;243134;1183;87600;-67
2024/04/07 17:18:12;;;;;;;;;11.00;10.00;;;;;26.66;31.33;101743.90;243627;1183;88670;-68
2024/04/07 17:23:48;;;;;;;;;8.00;7.50;;;;;26.63;31.54;101751.27;242469;1183;89485;-68
2024/04/07 17:29:06;;;;;;;;;8.50;8.00;;;;;26.62;31.41;101759.69;241668;1184;87712;-69
2024/04/07 17:34:50;;;;;;;;;8.00;8.00;;;;;26.61;31.30;101763.07;242612;1179;87761;-68
2024/04/07 17:40:18;;;;;;;;;7.33;7.33;;;;;26.60;31.43;101767.41;242669;1183;88259;-69
2024/04/07 17:45:54;;;;;;;;;8.00;8.00;;;;;26.58;31.50;101773.14;242672;1183;88799;-68
2024/04/07 17:51:22;;;;;;;;;10.00;8.00;;;;;26.55;31.43;101779.33;242174;1179;88819;-68
2024/04/07 17:56:59;;;;;;;;;8.00;8.00;;;;;26.54;31.47;101783.42;242490;1180;87721;-66
2024/04/07 18:02:22;;;;;;;;;8.00;8.00;;;;;26.54;31.59;101791.27;242213;1185;88480;-68
2024/04/07 18:08:41;;;;;;;;;7.67;7.33;;;;;26.52;31.54;101793.36;243432;1179;88408;-69
2024/04/07 18:13:45;;;;;;;;;8.00;8.00;;;;;26.51;31.68;101804.51;241690;1190;88206;-71
2024/04/07 18:18:52;;;;;;;;;8.50;8.50;;;;;26.50;31.64;101809.49;242039;1181;89024;-66
2024/04/07 18:23:55;;;;;;;;;8.67;8.67;;;;;26.48;31.54;101812.70;241579;1183;86937;-69
2024/04/07 18:29:09;;;;;;;;;;;;;;;26.47;31.69;101812.30;241951;1181;58627;-72
2024/04/07 18:35:15;;;;;;;;;8.50;8.50;;;;;26.46;31.79;101816.98;242501;1180;88389;-68
2024/04/07 18:40:21;;;;;;;;;8.25;8.25;;;;;26.46;31.53;101820.27;242043;1183;88458;-72
2024/04/07 18:45:43;;;;;;;;;8.00;8.00;;;;;26.44;31.58;101822.61;241940;1186;88525;-69
2024/04/07 18:51:28;;;;;;;;;9.50;7.50;;;;;26.44;31.59;101824.50;242862;1186;88524;-66
2024/04/07 18:57:05;;;;;;;;;8.00;8.00;;;;;26.43;31.76;101824.46;242776;1179;88625;-71
2024/04/07 19:02:43;;;;;;;;;8.00;8.00;;;;;26.41;31.82;101824.16;243482;1180;89313;-72
2024/04/07 19:08:01;;;;;;;;;7.00;7.00;;;;;26.37;31.71;101824.85;242052;1183;87948;-65
2024/04/07 19:13:42;;;;;;;;;7.50;7.50;;;;;26.36;31.61;101824.86;242670;1183;87885;-68
2024/04/07 19:18:52;;;;;;;;;9.00;9.00;;;;;26.35;31.78;101826.67;242497;1184;88472;-72
2024/04/07 19:24:04;;;;;;;;;8.00;8.00;;;;;26.33;31.71;101829.76;242970;1183;88682;-69
2024/04/07 19:29:07;;;;;;;;;8.75;8.75;;;;;26.32;31.87;101832.35;242302;1180;87909;-71
2024/04/07 19:34:45;;;;;;;;;8.00;8.00;;;;;26.32;31.70;101832.94;242716;1183;58490;-68
2024/04/07 19:39:49;;;;;;;;;8.00;8.00;;;;;26.31;31.86;101839.49;242749;1189;88174;-66
2024/04/07 19:45:05;;;;;;;;;7.00;7.00;;;;;26.30;31.85;101845.30;242628;1179;58478;-68
2024/04/07 19:50:34;;;;;;;;;9.00;9.00;;;;;26.28;31.69;101848.53;242616;1184;88787;-68
2024/04/07 19:56:43;;;;;;;;;7.00;7.00;;;;;26.29;31.74;101846.41;242893;1183;88499;-68
2024/04/07 20:01:46;;;;;;;;;6.67;6.67;;;;;26.30;31.94;101850.96;242625;1183;88385;-72
2024/04/07 20:06:51;;;;;;;;;9.00;9.00;;;;;26.28;31.74;101855.08;241629;1183;58481;-66
2024/04/07 20:12:02;;;;;;;;;8.00;8.00;;;;;26.27;31.90;101854.70;241656;1183;88061;-72
2024/04/07 20:17:25;;;;;;;;;9.00;9.00;;;;;26.27;31.93;101853.10;242796;1186;88412;-68
2024/04/07 20:22:39;;;;;;;;;8.00;8.00;;;;;26.25;32.02;101854.74;242890;1183;87208;-69
2024/04/07 20:28:07;;;;;;;;;7.00;7.00;;;;;26.23;31.95;101853.41;242594;1184;87756;-72
2024/04/07 20:33:32;;;;;;;;;8.00;8.00;;;;;26.22;31.90;101850.41;242522;1183;88610;-68
2024/04/07 20:39:00;;;;;;;;;7.00;7.00;;;;;26.22;31.92;101854.63;242750;1180;87538;-68
2024/04/07 20:44:37;;;;;;;;;7.67;7.67;;;;;26.22;31.98;101855.55;243613;1184;88291;-66
2024/04/07 20:50:02;;;;;;;;;8.00;8.00;;;;;26.20;32.03;101855.14;242060;1183;88587;-68
2024/04/07 20:55:13;;;;;;;;;8.67;8.67;;;;;26.19;32.11;101863.08;242525;1179;87474;-66
2024/04/07 21:00:54;;;;;;;;;9.00;9.00;;;;;26.19;32.00;101868.05;242680;1183;86514;-65
2024/04/07 21:06:30;;;;;;;;;8.00;8.00;;;;;26.19;32.00;101873.36;242517;1183;87983;-67
2024/04/07 21:11:40;;;;;;;;;9.00;9.00;;;;;26.17;31.86;101864.23;242538;1183;87961;-72
2024/04/07 21:16:56;;;;;;;;;9.00;9.00;;;;;26.16;31.91;101860.95;243207;1179;88123;-72
2024/04/07 21:21:59;;;;;;;;;8.00;8.00;;;;;26.15;32.03;101857.52;241784;1183;87998;-68
2024/04/07 21:27:35;;;;;;;;;7.00;7.00;;;;;26.14;31.89;101862.29;242965;1183;87762;-68
2024/04/07 21:32:51;;;;;;;;;8.00;8.00;;;;;26.15;31.91;101866.05;242245;1180;89196;-71
2024/04/07 21:38:26;;;;;;;;;8.00;8.00;;;;;26.14;32.11;101862.38;243057;1183;87325;-72
2024/04/07 21:43:29;;;;;;;;;12.75;10.75;;;;;26.12;32.15;101852.40;242905;1179;87578;-68
2024/04/07 21:49:06;;;;;;;;;9.00;9.00;;;;;26.10;32.22;101847.52;243466;1183;58663;-68
2024/04/07 21:54:09;;;;;;;;;8.50;8.25;;;;;26.09;32.27;101841.60;242564;1192;88833;-66
2024/04/07 21:59:22;;;;;;;;;8.50;8.50;;;;;26.09;32.06;101834.39;242953;1179;58834;-66
2024/04/07 22:04:27;;;;;;;;;6.75;6.75;;;;;26.08;32.13;101835.45;244866;1186;88640;-66
2024/04/07 22:09:30;;;;;;;;;8.00;8.00;;;;;26.08;32.17;101837.42;240175;1183;87224;-69
2024/04/07 22:14:33;;;;;;;;;9.00;9.00;;;;;26.11;32.05;101843.08;242368;1183;58783;-69
2024/04/07 22:19:36;;;;;;;;;9.00;9.00;;;;;26.09;32.06;101845.15;241865;1184;58629;-66
2024/04/07 22:24:39;;;;;;;;;8.00;8.00;;;;;26.08;32.08;101838.55;241504;1183;88493;-72
2024/04/07 22:29:42;;;;;;;;;8.00;8.00;;;;;26.09;32.04;101839.84;238004;1184;58742;-66
2024/04/07 22:34:45;;;;;;;;;9.00;8.75;;;;;26.13;32.04;101843.61;240565;1183;58824;-66
2024/04/07 22:39:50;;;;;;;;;8.00;8.00;;;;;26.13;31.89;101838.77;241192;1190;58645;-71
2024/04/07 22:44:53;;;;;;;;;9.00;9.00;;;;;26.11;32.17;101833.68;241530;1190;87620;-71
2024/04/07 22:50:37;;;;;;;;;8.00;8.00;;;;;26.09;31.99;101834.17;244248;1184;87982;-72
2024/04/07 22:56:12;;;;;;;;;9.00;9.00;;;;;26.07;32.20;101833.44;242969;1183;88692;-65
2024/04/07 23:01:38;;;;;;;;;9.00;8.33;;;;;26.06;32.07;101833.18;242655;1183;88046;-72
2024/04/07 23:07:57;;;;;;;;;7.00;7.00;;;;;26.05;32.06;101832.16;243018;1183;89584;-72
2024/04/07 23:13:01;;;;;;;;;8.33;8.33;;;;;26.07;32.10;101833.68;241935;1180;88593;-69
2024/04/07 23:18:36;;;;;;;;;9.00;9.00;;;;;26.06;32.08;101831.88;242229;1183;58652;-66
2024/04/07 23:23:42;;;;;;;;;8.00;8.00;;;;;26.04;32.11;101826.86;243165;1180;88268;-71
2024/04/07 23:28:46;;;;;;;;;8.00;8.00;;;;;26.01;32.26;101824.19;242697;1186;89029;-69
2024/04/07 23:33:49;;;;;;;;;8.00;8.00;;;;;25.99;32.26;101823.08;242636;1181;58553;-68
2024/04/07 23:39:04;;;;;;;;;8.00;7.00;;;;;25.98;32.16;101822.16;242526;1184;58580;-68
2024/04/07 23:45:12;;;;;;;;;8.00;8.00;;;;;25.97;32.19;101820.31;243044;1180;88367;-68
2024/04/07 23:50:15;;;;;;;;;9.00;9.00;;;;;25.99;32.18;101825.11;242764;1186;88071;-66
2024/04/07 23:55:37;;;;;;;;;8.00;8.00;;;;;25.98;32.18;101826.38;242116;1184;88617;-71
